Time;durP1;ratioP1;P1;durP2;ratioP2;P2;SDS_P1;SDS_P2;PMS_P1;PMS_P2;Temp;Humidity;BMP_temperature;BMP_pressure;BME280_temperature;BME280_humidity;BME280_pressure;Samples;Min_cycle;Max_cycle;Signal;HPM_P1;HPM_P2
2022/05/05 04:08:30;;;;;;;13.60;5.30;;;10.60;99.90;;;;;;5017019;28;20415;-79
2022/05/05 04:10:57;;;;;;;12.50;4.73;;;10.70;99.90;;;;;;5018373;28;20460;-79
2022/05/05 04:13:25;;;;;;;7.13;4.77;;;10.70;99.90;;;;;;5019130;28;20487;-79
2022/05/05 04:15:52;;;;;;;9.47;4.63;;;10.70;99.90;;;;;;5016607;28;20533;-79
2022/05/05 04:18:19;;;;;;;7.87;4.13;;;10.80;99.90;;;;;;5018181;28;20530;-79
2022/05/05 04:20:47;;;;;;;7.10;5.20;;;10.90;99.90;;;;;;5019467;28;20521;-79
2022/05/05 04:23:14;;;;;;;9.43;5.10;;;10.90;99.90;;;;;;5020101;28;20474;-82
2022/05/05 04:25:44;;;;;;;7.20;4.63;;;10.90;99.90;;;;;;5019657;28;20461;-80
2022/05/05 04:28:13;;;;;;;6.93;4.10;;;10.90;99.90;;;;;;5021340;28;20449;-79
2022/05/05 04:30:40;;;;;;;9.20;5.37;;;11.00;99.90;;;;;;5019935;28;20465;-79
2022/05/05 04:33:08;;;;;;;10.03;4.90;;;11.00;99.90;;;;;;5019903;28;20485;-80
2022/05/05 04:35:35;;;;;;;66.13;19.63;;;11.20;99.90;;;;;;5019517;28;20449;-79
2022/05/05 04:38:02;;;;;;;9.03;5.07;;;;;;;;;;5018572;28;20482;-79
2022/05/05 04:40:29;;;;;;;8.63;5.50;;;;;;;;;;5018351;28;20456;-79
2022/05/05 04:42:58;;;;;;;10.43;6.07;;;11.80;99.90;;;;;;5017359;28;20475;-79
2022/05/05 04:45:25;;;;;;;7.67;4.90;;;11.40;99.90;;;;;;5008638;28;20453;-79
2022/05/05 04:47:52;;;;;;;10.10;6.20;;;;;;;;;;5016889;28;20494;-78
2022/05/05 04:50:19;;;;;;;6.93;4.90;;;;;;;;;;5017194;28;20456;-80
2022/05/05 04:52:46;;;;;;;11.00;5.47;;;11.40;99.90;;;;;;5017967;28;20484;-78
2022/05/05 04:55:13;;;;;;;18.97;13.60;;;11.60;99.90;;;;;;5017800;28;20461;-78
2022/05/05 04:57:40;;;;;;;101.33;51.00;;;;;;;;;;5018901;28;20494;-79
2022/05/05 05:00:10;;;;;;;88.93;53.57;;;11.80;99.90;;;;;;5018280;28;20549;-79
2022/05/05 05:02:37;;;;;;;88.00;56.87;;;;;;;;;;5018636;28;20530;-78
2022/05/05 05:05:04;;;;;;;124.57;62.03;;;;;;;;;;5017376;28;20455;-78
2022/05/05 05:07:31;;;;;;;160.97;68.37;;;;;;;;;;5017149;28;20453;-78
2022/05/05 05:09:58;;;;;;;16.60;7.50;;;11.60;99.90;;;;;;5018579;28;20451;-79
2022/05/05 05:12:25;;;;;;;11.77;4.87;;;11.90;99.90;;;;;;5019633;28;20486;-79
2022/05/05 05:14:52;;;;;;;11.67;6.30;;;12.00;99.90;;;;;;5020411;28;20458;-78
2022/05/05 05:17:20;;;;;;;7.97;5.23;;;12.30;99.90;;;;;;5019581;28;20492;-79
2022/05/05 05:19:47;;;;;;;7.60;5.40;;;12.30;99.90;;;;;;5017880;28;20481;-79
2022/05/05 05:22:14;;;;;;;9.17;5.07;;;12.30;99.90;;;;;;5020031;28;20478;-79
2022/05/05 05:24:40;;;;;;;13.73;7.33;;;12.40;99.90;;;;;;5020063;28;20459;-79
2022/05/05 05:27:08;;;;;;;11.43;5.50;;;12.70;99.90;;;;;;5020272;28;20529;-78
2022/05/05 05:29:35;;;;;;;11.90;6.20;;;12.90;99.90;;;;;;5024140;28;20454;-79
2022/05/05 05:32:02;;;;;;;12.47;5.40;;;13.10;99.90;;;;;;5024316;28;20480;-79
2022/05/05 05:34:30;;;;;;;10.47;5.50;;;13.30;99.90;;;;;;5023567;28;20453;-79
2022/05/05 05:36:57;;;;;;;9.77;5.50;;;13.40;99.90;;;;;;5023900;28;20453;-79
2022/05/05 05:39:24;;;;;;;8.83;5.47;;;13.60;99.90;;;;;;5023632;28;20487;-79
2022/05/05 05:41:51;;;;;;;8.73;5.53;;;13.80;99.90;;;;;;5023284;28;20543;-78
2022/05/05 05:44:18;;;;;;;9.73;5.63;;;13.80;99.90;;;;;;5023179;28;20825;-78
2022/05/05 05:46:45;;;;;;;7.13;5.73;;;13.90;99.90;;;;;;5019408;28;20967;-78
2022/05/05 05:49:12;;;;;;;8.10;5.30;;;14.00;99.90;;;;;;5018078;28;20455;-80
2022/05/05 05:51:40;;;;;;;10.33;6.83;;;14.10;99.90;;;;;;5025854;28;20449;-80
2022/05/05 05:54:07;;;;;;;9.60;7.10;;;14.10;99.90;;;;;;5025124;28;20463;-78
2022/05/05 05:56:34;;;;;;;10.10;6.13;;;14.20;99.90;;;;;;5022509;28;20454;-78
2022/05/05 05:59:02;;;;;;;13.67;6.43;;;13.90;99.90;;;;;;5022257;28;20493;-79
2022/05/05 06:04:10;;;;;;;11.50;6.53;;;14.30;99.90;;;;;;4990911;28;20965;-78
2022/05/05 06:06:38;;;;;;;12.07;6.13;;;14.30;99.90;;;;;;5021820;28;20937;-79
2022/05/05 06:09:06;;;;;;;9.33;5.70;;;14.40;99.90;;;;;;5017149;28;20544;-79
2022/05/05 06:11:33;;;;;;;11.30;6.60;;;14.50;99.90;;;;;;5021978;28;20453;-80
2022/05/05 06:14:04;;;;;;;13.70;7.23;;;14.70;99.90;;;;;;5025787;28;20495;-80
2022/05/05 06:16:31;;;;;;;9.47;5.80;;;14.90;99.90;;;;;;5020777;28;20548;-80
2022/05/05 06:18:57;;;;;;;10.20;5.23;;;15.00;99.90;;;;;;5021225;28;20483;-80
2022/05/05 06:21:24;;;;;;;10.77;7.03;;;15.20;99.90;;;;;;5024871;28;20542;-81
2022/05/05 06:23:51;;;;;;;10.73;6.57;;;15.40;99.90;;;;;;5023789;28;20562;-80
2022/05/05 06:26:20;;;;;;;13.87;7.43;;;15.50;99.90;;;;;;5021778;28;20492;-80
2022/05/05 06:28:47;;;;;;;11.57;7.20;;;15.70;99.90;;;;;;5022343;28;20540;-79
2022/05/05 06:31:14;;;;;;;10.93;6.50;;;15.90;99.90;;;;;;5014015;28;20462;-80
2022/05/05 06:33:44;;;;;;;14.07;6.60;;;16.40;99.90;;;;;;5019744;28;20508;-80
2022/05/05 06:36:20;;;;;;;13.93;5.87;;;16.00;99.90;;;;;;5016525;28;20458;-79
2022/05/05 06:38:54;;;;;;;14.90;5.77;;;16.20;99.90;;;;;;5016077;28;20481;-80
2022/05/05 06:41:26;;;;;;;10.70;6.57;;;16.30;99.90;;;;;;5020342;28;20452;-81
2022/05/05 06:43:53;;;;;;;11.27;5.97;;;16.40;99.90;;;;;;5022804;28;20474;-80
2022/05/05 06:46:20;;;;;;;11.07;5.47;;;16.70;99.90;;;;;;5018048;28;20610;-80
2022/05/05 06:48:47;;;;;;;10.40;6.40;;;16.70;99.90;;;;;;5022342;28;20451;-81
2022/05/05 06:51:23;;;;;;;18.20;6.17;;;17.20;99.90;;;;;;5019792;28;20456;-79
2022/05/05 06:53:53;;;;;;;12.07;5.70;;;17.50;99.90;;;;;;5019606;28;20532;-81
2022/05/05 06:56:20;;;;;;;15.53;6.10;;;17.50;99.90;;;;;;5019974;28;20461;-81
2022/05/05 06:58:52;;;;;;;12.97;6.33;;;17.90;99.90;;;;;;5020049;28;20566;-80
2022/05/05 07:06:59;;;;;;;11.87;6.23;;;18.70;99.90;;;;;;5018082;28;20621;-82
2022/05/05 07:12:10;;;;;;;13.80;5.37;;;19.20;99.90;;;;;;5016335;28;20999;-81
2022/05/05 07:14:38;;;;;;;14.47;5.70;;;19.40;99.90;;;;;;5016051;28;20943;-82
2022/05/05 07:17:05;;;;;;;6.77;4.53;;;19.30;99.90;;;;;;5019727;28;20458;-81
2022/05/05 07:19:32;;;;;;;9.03;4.30;;;19.20;99.90;;;;;;5017497;28;20907;-82
2022/05/05 07:21:59;;;;;;;9.17;4.47;;;19.20;99.90;;;;;;5017954;28;20998;-81
2022/05/05 07:24:26;;;;;;;8.10;3.67;;;18.90;99.90;;;;;;5019379;28;20539;-82
2022/05/05 07:26:52;;;;;;;10.90;3.87;;;18.90;99.90;;;;;;5020163;28;20505;-81
2022/05/05 07:29:19;;;;;;;10.93;4.03;;;18.80;99.90;;;;;;5020296;28;20813;-81
2022/05/05 07:31:47;;;;;;;9.97;5.00;;;18.50;99.90;;;;;;5018741;28;20461;-79
2022/05/05 07:34:15;;;;;;;10.10;3.63;;;18.60;99.90;;;;;;5007893;28;20555;-79
2022/05/05 07:36:42;;;;;;;10.27;4.80;;;18.60;99.90;;;;;;5013001;28;20470;-79
2022/05/05 07:39:09;;;;;;;8.40;4.87;;;18.70;99.90;;;;;;5012694;28;20867;-79
2022/05/05 07:41:36;;;;;;;8.03;4.30;;;18.50;99.90;;;;;;5012695;28;20849;-80
2022/05/05 07:44:05;;;;;;;8.07;4.00;;;18.80;99.90;;;;;;5017241;28;20476;-80
2022/05/05 07:46:32;;;;;;;7.63;4.00;;;18.90;99.90;;;;;;5016744;28;21116;-80
2022/05/05 07:49:01;;;;;;;8.00;4.77;;;19.10;99.90;;;;;;5020214;28;20452;-79
2022/05/05 07:51:28;;;;;;;8.83;4.47;;;19.10;99.90;;;;;;5019325;28;20521;-79
2022/05/05 07:56:40;;;;;;;7.20;5.27;;;19.70;99.90;;;;;;5016110;28;20511;-80
2022/05/05 07:59:07;;;;;;;8.83;5.60;;;20.00;99.90;;;;;;5012959;28;20496;-79
2022/05/05 08:01:34;;;;;;;15.13;7.77;;;20.20;99.90;;;;;;5008901;28;20978;-80
2022/05/05 08:04:02;;;;;;;17.33;7.33;;;20.20;99.90;;;;;;5013957;28;20564;-80
2022/05/05 08:06:29;;;;;;;16.47;7.00;;;20.30;99.90;;;;;;5015744;28;20465;-79
2022/05/05 08:08:56;;;;;;;12.20;6.43;;;20.50;99.90;;;;;;5013914;28;20992;-79
2022/05/05 08:11:22;;;;;;;9.67;5.60;;;20.70;99.90;;;;;;5014468;28;20477;-80
2022/05/05 08:13:49;;;;;;;18.20;6.90;;;20.80;99.90;;;;;;5016877;28;20840;-80
2022/05/05 08:16:16;;;;;;;14.10;6.33;;;20.70;99.90;;;;;;5025755;28;20571;-80
2022/05/05 08:18:43;;;;;;;12.13;5.83;;;21.10;99.90;;;;;;5021516;28;20534;-79
2022/05/05 08:21:11;;;;;;;9.13;6.27;;;21.20;99.90;;;;;;5025035;28;20510;-81
2022/05/05 08:23:39;;;;;;;14.90;6.43;;;21.10;99.90;;;;;;5027892;28;20479;-81
2022/05/05 08:28:51;;;;;;;11.80;7.87;;;21.50;99.90;;;;;;5016230;28;20477;-81
2022/05/05 08:31:18;;;;;;;14.30;8.23;;;22.20;99.90;;;;;;5015944;28;20541;-80
2022/05/05 08:33:46;;;;;;;14.60;8.30;;;22.60;99.90;;;;;;5015557;28;20462;-81
2022/05/05 08:36:14;;;;;;;12.97;7.87;;;23.40;99.90;;;;;;5016842;28;20461;-81
2022/05/05 08:38:41;;;;;;;16.30;7.73;;;23.80;99.90;;;;;;5019246;28;20520;-80
2022/05/05 08:41:12;;;;;;;11.20;7.00;;;24.20;99.90;;;;;;5018954;28;20541;-80
2022/05/05 08:43:38;;;;;;;13.47;7.43;;;24.60;99.90;;;;;;5041396;23;20497;-79
2022/05/05 08:46:08;;;;;;;11.80;7.93;;;25.30;98.60;;;;;;5009910;28;20489;-79
2022/05/05 08:48:36;;;;;;;15.53;9.43;;;25.70;99.50;;;;;;5011625;28;20452;-78
2022/05/05 08:51:05;;;;;;;17.93;9.20;;;26.10;95.20;;;;;;5014150;28;21000;-80
2022/05/05 08:53:35;;;;;;;10.47;8.57;;;25.30;95.80;;;;;;5012333;28;20920;-78
2022/05/05 08:56:03;;;;;;;11.40;8.40;;;25.90;94.20;;;;;;5013733;28;20532;-79
2022/05/05 08:58:31;;;;;;;16.57;10.87;;;26.60;92.70;;;;;;5013244;28;20486;-78
2022/05/05 09:00:58;;;;;;;11.30;7.80;;;25.50;90.00;;;;;;5014898;28;20910;-79
2022/05/05 09:03:25;;;;;;;13.80;8.83;;;26.00;90.20;;;;;;5016581;28;20466;-79
2022/05/05 09:05:53;;;;;;;10.90;7.50;;;26.40;89.80;;;;;;5013483;28;20566;-80
2022/05/05 09:08:28;;;;;;;10.80;8.20;;;27.60;90.30;;;;;;4997426;28;20455;-79
2022/05/05 09:10:57;;;;;;;10.17;7.77;;;27.90;85.70;;;;;;4997465;28;20454;-78
2022/05/05 09:13:25;;;;;;;10.63;7.73;;;28.90;85.70;;;;;;4998230;28;20867;-81
2022/05/05 09:15:53;;;;;;;15.67;9.60;;;29.60;83.30;;;;;;5016910;28;20450;-79
2022/05/05 09:18:22;;;;;;;14.77;9.77;;;29.80;76.40;;;;;;5018526;28;20854;-79
2022/05/05 09:20:49;;;;;;;12.20;9.67;;;29.80;81.50;;;;;;5017229;28;20449;-79
2022/05/05 09:23:32;;;;;;;12.17;9.23;;;30.60;74.60;;;;;;5017210;28;20465;-81
2022/05/05 09:26:01;;;;;;;12.87;7.90;;;31.50;68.80;;;;;;5016772;28;20464;-80
2022/05/05 09:28:31;;;;;;;14.07;10.47;;;31.80;68.80;;;;;;5018258;28;20599;-79
2022/05/05 09:31:04;;;;;;;12.10;7.93;;;31.80;64.40;;;;;;5012849;28;20451;-79
2022/05/05 09:33:42;;;;;;;13.97;9.90;;;32.30;61.30;;;;;;5003967;28;20515;-79
2022/05/05 09:36:10;;;;;;;12.73;9.17;;;33.20;60.10;;;;;;5014934;28;20449;-80
2022/05/05 09:38:53;;;;;;;14.20;10.47;;;32.80;58.70;;;;;;5015033;28;21068;-80
2022/05/05 09:41:23;;;;;;;13.33;11.20;;;33.00;60.70;;;;;;5015082;28;20473;-79
2022/05/05 09:43:50;;;;;;;17.37;12.80;;;32.30;57.80;;;;;;5016733;28;21005;-80
2022/05/05 09:46:36;;;;;;;14.27;10.10;;;30.50;57.30;;;;;;5011834;28;21715;-79
2022/05/05 09:49:08;;;;;;;13.60;9.50;;;31.50;56.70;;;;;;5015008;28;20486;-80
2022/05/05 09:51:38;;;;;;;16.50;11.47;;;30.60;57.30;;;;;;5014184;28;20508;-79
2022/05/05 09:59:40;;;;;;;18.10;12.50;;;31.80;56.50;;;;;;5036179;28;20482;-80
2022/05/05 10:02:15;;;;;;;15.73;10.17;;;31.50;55.90;;;;;;5036931;28;20448;-79
2022/05/05 10:04:48;;;;;;;11.83;9.80;;;31.60;57.50;;;;;;5031859;28;20907;-79
2022/05/05 10:07:20;;;;;;;10.40;8.60;;;31.90;56.20;;;;;;5017570;28;20438;-79
2022/05/05 10:09:49;;;;;;;13.33;8.23;;;33.90;54.00;;;;;;5017581;28;20456;-80
2022/05/05 10:12:18;;;;;;;14.73;9.97;;;33.90;54.40;;;;;;5017120;28;20458;-80
2022/05/05 10:14:45;;;;;;;13.67;10.97;;;33.30;53.90;;;;;;5016525;28;20915;-80
2022/05/05 10:17:15;;;;;;;12.70;10.07;;;32.50;56.60;;;;;;5017402;28;20480;-80
2022/05/05 10:19:43;;;;;;;12.80;10.00;;;33.30;55.70;;;;;;5016746;28;20489;-80
2022/05/05 10:22:16;;;;;;;14.80;9.47;;;34.60;55.60;;;;;;5016930;28;20457;-80
2022/05/05 10:24:53;;;;;;;13.53;9.50;;;35.50;54.40;;;;;;5019781;28;20473;-80
2022/05/05 10:27:21;;;;;;;13.83;9.63;;;35.90;51.70;;;;;;5020996;28;20957;-79
2022/05/05 10:29:48;;;;;;;10.57;7.90;;;36.10;51.50;;;;;;5016981;28;20453;-80
2022/05/05 10:32:16;;;;;;;10.47;7.20;;;37.00;50.80;;;;;;5016857;28;20464;-79
2022/05/05 10:34:45;;;;;;;12.87;9.57;;;36.40;49.80;;;;;;5016528;28;20496;-80
2022/05/05 10:37:14;;;;;;;11.63;8.87;;;34.90;48.60;;;;;;5010309;28;20857;-80
2022/05/05 10:39:52;;;;;;;16.73;9.97;;;32.50;49.80;;;;;;5014526;28;20486;-79
2022/05/05 10:42:24;;;;;;;13.90;9.97;;;29.90;50.50;;;;;;5018488;28;20457;-79
2022/05/05 10:45:14;;;;;;;13.30;9.73;;;28.10;51.60;;;;;;5010894;28;20834;-79
2022/05/05 10:48:12;;;;;;;14.47;10.90;;;29.00;54.90;;;;;;5014374;28;20489;-79
2022/05/05 10:50:43;;;;;;;12.07;8.93;;;32.70;54.40;;;;;;5009983;28;20454;-79
2022/05/05 10:53:25;;;;;;;11.60;8.03;;;33.00;53.60;;;;;;5017917;28;20481;-81
2022/05/05 10:55:54;;;;;;;13.33;9.37;;;34.10;53.40;;;;;;5016082;28;20450;-79
2022/05/05 10:59:02;;;;;;;12.90;9.30;;;35.60;51.20;;;;;;5019440;28;20452;-80
2022/05/05 11:01:33;;;;;;;8.93;7.10;;;35.30;46.90;;;;;;5014361;28;20905;-80
2022/05/05 11:04:08;;;;;;;7.83;6.23;;;37.40;50.60;;;;;;5015792;28;20937;-81
2022/05/05 11:06:36;;;;;;;10.43;9.30;;;38.60;49.30;;;;;;5031586;28;20461;-81
2022/05/05 11:09:04;;;;;;;7.83;5.90;;;38.60;45.40;;;;;;5020751;28;20473;-81
2022/05/05 11:11:42;;;;;;;9.83;7.77;;;39.90;46.40;;;;;;5017227;28;20462;-80
2022/05/05 11:22:59;;;;;;;10.50;6.90;;;30.30;47.80;;;;;;5014032;28;20954;-81
2022/05/05 11:25:26;;;;;;;11.20;8.00;;;29.50;50.70;;;;;;5016845;28;20469;-80
2022/05/05 11:27:56;;;;;;;9.73;6.20;;;31.10;51.40;;;;;;5016299;28;20465;-80
2022/05/05 11:30:23;;;;;;;10.53;6.93;;;33.40;50.10;;;;;;5017725;28;20441;-81
2022/05/05 11:32:51;;;;;;;23.67;18.27;;;33.00;55.40;;;;;;5015717;28;20833;-80
2022/05/05 11:35:21;;;;;;;11.80;8.60;;;33.10;47.50;;;;;;5014707;28;20453;-80
2022/05/05 11:37:48;;;;;;;12.63;8.10;;;33.30;48.30;;;;;;5017775;28;20454;-80
2022/05/05 11:40:15;;;;;;;12.77;7.53;;;34.30;46.90;;;;;;5022182;28;20488;-79
2022/05/05 11:45:27;;;;;;;8.93;6.40;;;31.10;46.80;;;;;;5002400;28;20441;-79
2022/05/05 11:47:55;;;;;;;9.57;6.00;;;28.80;48.60;;;;;;5018099;28;20486;-78
2022/05/05 11:50:22;;;;;;;9.57;5.63;;;28.00;55.90;;;;;;5018627;28;21061;-79
2022/05/05 11:52:49;;;;;;;12.77;7.27;;;27.90;52.50;;;;;;5018386;28;20516;-79
2022/05/05 11:55:20;;;;;;;9.23;6.60;;;28.00;50.40;;;;;;5020399;28;20898;-79
2022/05/05 11:57:49;;;;;;;8.30;5.30;;;29.90;51.70;;;;;;5014288;28;20450;-79
2022/05/05 12:03:05;;;;;;;6.40;4.73;;;31.70;48.00;;;;;;5011497;28;20509;-79
2022/05/05 12:05:32;;;;;;;6.50;5.30;;;29.40;55.10;;;;;;5014766;28;20449;-79
2022/05/05 12:08:00;;;;;;;6.97;5.33;;;29.20;50.30;;;;;;5016901;28;20454;-81
2022/05/05 12:10:35;;;;;;;5.77;4.80;;;28.30;51.10;;;;;;5017255;28;20969;-78
2022/05/05 12:13:02;;;;;;;9.43;4.23;;;27.80;50.10;;;;;;5017831;28;20473;-79
2022/05/05 12:15:29;;;;;;;8.53;4.87;;;27.40;52.70;;;;;;5015238;28;20449;-79
2022/05/05 12:17:58;;;;;;;6.70;4.40;;;27.30;52.60;;;;;;5015617;28;20488;-77
2022/05/05 12:20:30;;;;;;;6.43;5.20;;;27.00;50.40;;;;;;5015797;28;20900;-79
2022/05/05 12:22:58;;;;;;;7.70;4.60;;;25.80;53.50;;;;;;5015723;28;20613;-80
2022/05/05 12:25:26;;;;;;;6.30;4.53;;;25.70;54.40;;;;;;5016175;28;20849;-79
2022/05/05 12:28:08;;;;;;;6.90;4.50;;;25.50;55.40;;;;;;5001568;28;20451;-80
2022/05/05 12:30:37;;;;;;;6.03;3.70;;;25.00;54.60;;;;;;5001964;28;20478;-79
2022/05/05 12:33:11;;;;;;;6.37;3.90;;;24.40;55.90;;;;;;5009057;28;20473;-80
2022/05/05 12:35:41;;;;;;;10.47;4.20;;;24.10;55.30;;;;;;5009246;28;20445;-79
2022/05/05 12:38:13;;;;;;;5.60;4.17;;;24.00;56.10;;;;;;5007762;28;20450;-80
2022/05/05 12:40:41;;;;;;;8.67;4.73;;;24.00;57.30;;;;;;5011439;28;20508;-79
2022/05/05 12:43:10;;;;;;;5.83;3.80;;;23.90;55.70;;;;;;5010320;28;20940;-80
2022/05/05 12:45:38;;;;;;;6.10;4.37;;;24.70;54.90;;;;;;5002751;28;20458;-78
2022/05/05 12:48:07;;;;;;;5.47;3.50;;;26.10;55.40;;;;;;5016431;28;20458;-79
2022/05/05 12:50:36;;;;;;;6.37;4.70;;;28.30;55.40;;;;;;5003282;28;20481;-81
2022/05/05 13:01:40;;;;;;;5.63;3.47;;;29.90;48.30;;;;;;5011307;28;20434;-80
2022/05/05 13:04:12;;;;;;;5.50;4.20;;;29.30;49.60;;;;;;5018416;28;20465;-79
2022/05/05 13:06:39;;;;;;;6.03;3.67;;;27.70;48.60;;;;;;5018222;28;20507;-81
2022/05/05 13:09:09;;;;;;;4.10;3.20;;;27.10;50.10;;;;;;5017682;28;20501;-79
2022/05/05 13:11:36;;;;;;;7.03;3.67;;;26.70;52.90;;;;;;5016421;28;20453;-80
2022/05/05 13:14:03;;;;;;;6.20;3.20;;;26.00;53.90;;;;;;5018112;28;20560;-82
2022/05/05 13:16:31;;;;;;;4.87;3.23;;;25.60;54.80;;;;;;5018555;28;20441;-81
2022/05/05 13:18:59;;;;;;;7.47;4.80;;;25.00;55.80;;;;;;5018766;28;20513;-80
2022/05/05 13:21:26;;;;;;;5.33;3.67;;;24.50;56.00;;;;;;5019364;28;20580;-81
2022/05/05 13:23:53;;;;;;;6.00;4.10;;;24.20;58.90;;;;;;5017663;28;20468;-79
2022/05/05 13:26:21;;;;;;;9.67;4.40;;;23.70;58.00;;;;;;5017106;28;20456;-80
2022/05/05 13:28:48;;;;;;;6.37;4.50;;;23.50;57.70;;;;;;5017358;28;20461;-80
2022/05/05 13:31:15;;;;;;;6.87;4.90;;;23.50;58.00;;;;;;5016170;28;20445;-78
2022/05/05 13:33:42;;;;;;;7.23;4.70;;;23.40;58.50;;;;;;5016010;28;20993;-79
2022/05/05 13:36:09;;;;;;;6.70;5.00;;;23.50;58.00;;;;;;5014517;28;20492;-79
2022/05/05 13:38:36;;;;;;;8.77;4.70;;;23.70;58.20;;;;;;5018765;28;20473;-79
2022/05/05 13:41:03;;;;;;;5.80;4.23;;;24.10;56.80;;;;;;5017209;28;20890;-78
2022/05/05 13:43:31;;;;;;;4.77;3.67;;;24.10;55.80;;;;;;5022641;28;20944;-78
2022/05/05 13:45:58;;;;;;;6.10;3.90;;;24.80;58.80;;;;;;5008890;28;20447;-77
2022/05/05 13:48:25;;;;;;;6.47;3.50;;;25.30;55.50;;;;;;4998928;28;20455;-78
2022/05/05 13:50:52;;;;;;;10.07;3.97;;;25.30;56.50;;;;;;5002527;28;20993;-79
2022/05/05 13:53:18;;;;;;;8.27;4.17;;;25.20;59.00;;;;;;5017942;28;20479;-79
2022/05/05 13:55:46;;;;;;;4.40;3.47;;;25.20;57.00;;;;;;5021457;28;20457;-79
2022/05/05 13:58:13;;;;;;;6.77;3.73;;;25.00;58.30;;;;;;5020458;28;20461;-80
2022/05/05 14:00:41;;;;;;;5.13;3.00;;;25.00;57.70;;;;;;5021235;28;20484;-80
2022/05/05 14:03:08;;;;;;;9.73;4.17;;;24.90;58.30;;;;;;5021398;28;20469;-80
2022/05/05 14:05:36;;;;;;;5.20;3.40;;;24.50;56.80;;;;;;5021517;28;20453;-80
2022/05/05 14:13:31;;;;;;;7.60;4.17;;;23.50;58.20;;;;;;5020116;28;20463;-79
2022/05/05 14:15:59;;;;;;;5.70;3.87;;;23.40;59.70;;;;;;5020686;28;20464;-79
2022/05/05 14:18:26;;;;;;;8.00;4.20;;;23.40;61.30;;;;;;5019742;28;20464;-78
2022/05/05 14:20:53;;;;;;;6.77;4.37;;;23.30;59.80;;;;;;5019919;28;20577;-78
2022/05/05 14:23:20;;;;;;;5.70;3.97;;;22.80;61.10;;;;;;5019168;28;20477;-79
2022/05/05 14:25:47;;;;;;;7.43;3.90;;;23.00;62.00;;;;;;5019511;28;20453;-79
2022/05/05 14:28:13;;;;;;;5.60;3.40;;;23.00;58.70;;;;;;5021615;28;20996;-80
2022/05/05 14:30:40;;;;;;;11.10;3.90;;;22.90;61.30;;;;;;5021083;28;20450;-80
2022/05/05 14:33:08;;;;;;;5.90;3.83;;;22.90;62.10;;;;;;5019778;28;20474;-80
2022/05/05 14:35:35;;;;;;;5.00;4.10;;;22.90;62.50;;;;;;5019883;28;20895;-79
2022/05/05 14:38:03;;;;;;;5.80;3.37;;;22.80;60.60;;;;;;5019651;28;22117;-79
2022/05/05 14:40:30;;;;;;;7.57;4.30;;;22.70;62.30;;;;;;5017442;28;20519;-78
2022/05/05 14:42:57;;;;;;;5.30;3.37;;;22.50;60.10;;;;;;5016715;28;20916;-78
2022/05/05 14:45:23;;;;;;;4.20;3.47;;;22.50;60.70;;;;;;5017872;28;20449;-78
2022/05/05 14:47:50;;;;;;;5.23;3.33;;;22.60;63.20;;;;;;5017749;28;20858;-78
2022/05/05 14:50:18;;;;;;;44.13;36.87;;;22.70;60.30;;;;;;5017264;28;20449;-79
2022/05/05 14:52:45;;;;;;;441.07;295.33;;;;;;;;;;5018042;28;20449;-79
2022/05/05 14:55:12;;;;;;;317.17;283.80;;;;;;;;;;5061316;22;20510;-79
2022/05/05 14:57:39;;;;;;;16.17;14.50;;;24.10;74.00;;;;;;5047674;28;20448;-78
2022/05/05 15:00:07;;;;;;;7.60;5.57;;;22.30;95.10;;;;;;5033512;28;20484;-77
2022/05/05 15:02:35;;;;;;;6.67;5.97;;;;;;;;;;5048208;28;20535;-80
2022/05/05 15:05:03;;;;;;;103.30;96.03;;;;;;;;;;5043673;28;20573;-78
2022/05/05 15:07:32;;;;;;;37.43;33.90;;;22.80;70.70;;;;;;5021365;28;20452;-80
2022/05/05 15:09:59;;;;;;;19.83;18.13;;;;;;;;;;5034425;28;20453;-77
2022/05/05 15:12:26;;;;;;;21.97;20.33;;;;;;;;;;5018928;28;20496;-79
2022/05/05 15:14:53;;;;;;;14.23;13.00;;;22.80;85.20;;;;;;5028915;28;20479;-77
2022/05/05 15:17:20;;;;;;;12.80;11.67;;;23.00;82.80;;;;;;5035168;28;20544;-79
2022/05/05 15:19:47;;;;;;;13.70;12.50;;;23.80;93.90;;;;;;5025399;28;20464;-79
2022/05/05 15:22:14;;;;;;;8.50;5.07;;;;;;;;;;5024024;28;20543;-80
2022/05/05 15:25:02;;;;;;;8.80;5.63;;;23.50;94.30;;;;;;5037944;28;20477;-79
2022/05/05 15:27:29;;;;;;;7.47;5.07;;;;;;;;;;5037084;28;20464;-79
2022/05/05 15:29:56;;;;;;;9.10;4.63;;;;;;;;;;5017943;28;20477;-79
2022/05/05 15:32:25;;;;;;;10.30;8.43;;;;;;;;;;5016432;28;20457;-79
2022/05/05 15:34:53;;;;;;;22.00;20.23;;;23.00;90.70;;;;;;5031698;28;20476;-78
2022/05/05 15:37:20;;;;;;;11.63;10.40;;;23.20;90.20;;;;;;5021781;28;20960;-79
2022/05/05 15:39:48;;;;;;;8.80;4.40;;;23.70;85.10;;;;;;5015516;28;20481;-79
2022/05/05 15:42:15;;;;;;;10.47;9.17;;;;;;;;;;5030838;28;20943;-79
2022/05/05 15:44:42;;;;;;;5.00;4.17;;;;;;;;;;5016778;28;20469;-80
2022/05/05 15:47:09;;;;;;;5.73;3.57;;;23.10;76.60;;;;;;5022515;28;20460;-79
2022/05/05 15:49:36;;;;;;;7.03;4.33;;;22.20;65.20;;;;;;5029885;28;20445;-80
2022/05/05 15:52:04;;;;;;;6.67;3.40;;;22.50;67.50;;;;;;5031502;28;20452;-78
2022/05/05 15:54:31;;;;;;;6.03;3.43;;;22.90;73.60;;;;;;5032771;28;20468;-79
2022/05/05 15:56:59;;;;;;;6.73;4.07;;;22.60;91.90;;;;;;5027740;28;20457;-79
2022/05/05 15:59:26;;;;;;;8.73;5.60;;;22.30;66.60;;;;;;5033412;28;20457;-83
2022/05/05 16:01:53;;;;;;;9.07;7.20;;;21.30;68.60;;;;;;5033188;28;20489;-79
2022/05/05 16:04:20;;;;;;;14.73;11.27;;;21.30;83.90;;;;;;5024143;28;20456;-79
2022/05/05 16:06:47;;;;;;;35.27;32.57;;;21.60;93.50;;;;;;5024152;28;20453;-79
2022/05/05 16:09:14;;;;;;;10.77;9.80;;;;;;;;;;5033683;28;20548;-81
2022/05/05 16:11:41;;;;;;;8.87;3.20;;;;;;;;;;5016022;28;20460;-80
2022/05/05 16:14:10;;;;;;;15.80;14.47;;;20.60;64.70;;;;;;5030220;28;20468;-81
2022/05/05 16:16:37;;;;;;;10.97;7.83;;;21.30;97.10;;;;;;5036826;28;20457;-80
2022/05/05 16:19:04;;;;;;;7.67;4.17;;;;;;;;;;5043281;28;20843;-79
2022/05/05 16:21:31;;;;;;;9.13;6.77;;;;;;;;;;5034796;28;20480;-80
2022/05/05 16:23:57;;;;;;;6.30;3.90;;;20.90;81.00;;;;;;5024681;28;20461;-80
2022/05/05 16:31:55;;;;;;;8.80;3.63;;;21.20;63.20;;;;;;5029277;28;20581;-82
2022/05/05 16:34:22;;;;;;;7.50;4.93;;;21.30;79.80;;;;;;5026862;28;20480;-80
2022/05/05 16:36:49;;;;;;;6.93;4.97;;;;;;;;;;5029948;28;20461;-81
2022/05/05 16:39:16;;;;;;;35.57;33.20;;;21.10;69.80;;;;;;5021112;28;20460;-80
2022/05/05 16:41:45;;;;;;;52.67;49.53;;;;;;;;;;5029430;28;20578;-79
2022/05/05 16:44:14;;;;;;;20.33;18.93;;;20.90;85.00;;;;;;5027496;28;20564;-79
2022/05/05 16:46:40;;;;;;;40.10;37.33;;;21.40;75.60;;;;;;5016936;28;20457;-79
2022/05/05 16:49:07;;;;;;;4.93;3.17;;;;;;;;;;5016392;28;20442;-81
2022/05/05 16:51:34;;;;;;;5.80;3.60;;;20.90;59.90;;;;;;5032529;28;20956;-81
2022/05/05 16:54:03;;;;;;;5.00;3.10;;;20.70;59.60;;;;;;5035832;28;20457;-81
2022/05/05 16:56:30;;;;;;;7.67;3.90;;;;;;;;;;5040809;28;20516;-83
2022/05/05 16:58:57;;;;;;;7.47;3.57;;;20.70;60.20;;;;;;5031500;28;20541;-80
2022/05/05 17:01:25;;;;;;;4.90;3.10;;;20.20;58.30;;;;;;5027351;28;20481;-80
2022/05/05 17:03:51;;;;;;;11.00;3.60;;;19.90;89.00;;;;;;5017533;28;20532;-80
2022/05/05 17:06:19;;;;;;;5.80;2.53;;;;;;;;;;5029826;28;20476;-81
2022/05/05 17:08:45;;;;;;;5.47;3.27;;;19.90;80.20;;;;;;5027192;28;20454;-80
2022/05/05 17:11:12;;;;;;;5.87;3.43;;;;;;;;;;5030412;28;20579;-81
2022/05/05 17:13:39;;;;;;;5.20;2.93;;;20.60;73.70;;;;;;5021211;28;20449;-77
2022/05/05 17:16:06;;;;;;;4.70;2.77;;;;;;;;;;5022636;28;20696;-81
2022/05/05 17:18:35;;;;;;;8.53;4.37;;;20.10;90.50;;;;;;5034016;28;21066;-80
2022/05/05 17:21:03;;;;;;;5.00;3.07;;;;;;;;;;5034198;28;20582;-81
2022/05/05 17:23:31;;;;;;;4.40;2.67;;;;;;;;;;5034555;28;20453;-79
2022/05/05 17:25:58;;;;;;;7.73;3.30;;;;;;;;;;5050170;28;20492;-80
2022/05/05 17:28:26;;;;;;;7.30;3.23;;;20.20;81.30;;;;;;5037369;28;20987;-81
2022/05/05 17:30:53;;;;;;;8.00;4.83;;;;;;;;;;5030980;28;20543;-80
2022/05/05 17:33:19;;;;;;;8.93;3.77;;;20.00;94.30;;;;;;5033744;28;20455;-80
2022/05/05 17:35:48;;;;;;;6.57;3.30;;;20.00;88.40;;;;;;5037446;28;20471;-80
2022/05/05 17:38:15;;;;;;;7.43;4.20;;;19.60;77.60;;;;;;5020530;28;20524;-79
2022/05/05 17:40:41;;;;;;;7.17;4.37;;;20.00;73.80;;;;;;5021867;28;20466;-81
2022/05/05 17:43:08;;;;;;;6.27;3.50;;;19.20;75.30;;;;;;5035828;28;20452;-79
2022/05/05 17:51:07;;;;;;;6.50;3.47;;;19.80;91.10;;;;;;5024581;28;20943;-80
2022/05/05 17:53:34;;;;;;;5.77;2.87;;;19.70;85.70;;;;;;5026955;28;20457;-80
2022/05/05 17:56:01;;;;;;;4.73;3.10;;;19.50;79.60;;;;;;5030530;28;20511;-80
2022/05/05 17:58:28;;;;;;;6.37;3.67;;;;;;;;;;5026748;28;20450;-80
2022/05/05 18:00:55;;;;;;;7.00;3.60;;;19.60;83.80;;;;;;5047662;28;20498;-79
2022/05/05 18:03:22;;;;;;;3.77;2.77;;;;;;;;;;5044806;28;20490;-80
2022/05/05 18:05:52;;;;;;;8.83;4.07;;;19.00;71.80;;;;;;5045136;28;20480;-81
2022/05/05 18:08:21;;;;;;;5.63;3.43;;;18.70;89.10;;;;;;5041523;28;20455;-78